Albany, NY (12205)

3:47 AM EDT on July 28, 2017 (GMT -0400)
South Colonie - Cook Park Area | | Change Station
Active Advisory: Special Statement

Elev 318 ft 42.71 °N, 73.84 °W | Updated 36 seconds ago

Patches of Fog
Patches Fog
61.7 °F
Feels Like 61.7 °F
N
0.0
Wind Variable Wind from SSE

Today
High -- | Low -- °F
--% Chance of Precip.
Yesterday
High -- | Low -- °F
Precip. -- in
Pressure 29.87 in
Visibility 10.0 miles
Clouds Few 100 ft
Scattered Clouds 7500 ft
Dew Point 59 °F
Humidity 91%
Rainfall 0.00 in
Snow Depth Not available.
5:43 AM 8:19 PM
Waxing Crescent, 28% visible
METAR KALB 280651Z 00000KT 10SM BCFG FEW001 SCT075 17/16 A2987 RMK AO2 SLP114 BCFG N MIFG SE-S T01670161 $
Pressure 29.87 in
Visibility 10.0 miles
Clouds Few 100 ft
Scattered Clouds 7500 ft
Dew Point 59 °F
Humidity 91%
Rainfall 0.00 in
Snow Depth Not available.
5:43 AM 8:19 PM
Waxing Crescent, 28% visible
METAR KALB 280651Z 00000KT 10SM BCFG FEW001 SCT075 17/16 A2987 RMK AO2 SLP114 BCFG N MIFG SE-S T01670161 $

Get Your Daily Forecast Email!

Thanks for signing up!

Be on the lookout for a verification email in your inbox.

You'll start receiving severe weather alerts in your inbox..

×

10-Day Weather Forecast

Almanac

Astronomy

Jul. 28, 2017 Rise Set
Actual Time
Civil Twilight
Nautical Twilight
Astronomical Twilight
Moon
Length of Visible Light
Length of Day
Tomorrow will be .
, % of the Moon is Illuminated

Today's Extremes

State Highs State Lows

Community

WunderPhotos

Category 6

Welcome to Category 6. This is the collective home for Weather Underground's featured writeups by Dr. Jeff Masters (right), Bob Henson (left), Chris Burt, and other regular contributors.

Nearby

Air Quality

  Air Quality AQ Index Pollutant
Not available.

Snow Depth

Station Depth Elevation

Earthquake Activity

City Distance Mag. Time & Date
Minimum magnitude displayed is 2.5.

Coastal Water Temperatures

Place Temperature

Stations

Nearby Weather Stations

Station Location Temp. Windchill Dew Point Humidity Wind Precip. Elev Updated Type
                   

Watches & Warnings

Special Statement
Issued: 12:26 AM EDT Jul. 28, 2017 – National Weather Service

... Patchy dense fog through this early Friday morning...
patchy dense fog will reduce visibilities to less than one mile
through this early Friday morning. Motorists are urged to watch
for sudden changes in visibilities and adjust driving speeds
accordingly. Leave plenty of room between neighboring motorists,
use low beam headlights and allow for some extra time to reach
your destination safely.


1226 am EDT Fri Jul 28 2017

... Patchy dense fog through this early Friday morning...
patchy dense fog will reduce visibilities to less than one mile
through this early Friday morning. Motorists are urged to watch
for sudden changes in visibilities and adjust driving speeds
accordingly. Leave plenty of room between neighboring motorists,
use low beam headlights and allow for some extra time to reach
your destination safely.